createdAt,value
2018-04-28T00:00:28.169Z,6.77
2018-04-28T00:06:22.606Z,7.63
2018-04-28T00:08:55.585Z,6.20
2018-04-28T00:11:29.373Z,9.47
2018-04-28T00:14:02.348Z,7.77
2018-04-28T00:16:49.186Z,9.13
2018-04-28T00:19:26.162Z,11.17
2018-04-28T00:25:10.899Z,7.63
2018-04-28T00:28:04.458Z,6.70
2018-04-28T00:30:39.227Z,8.37
2018-04-28T00:33:14.065Z,9.23
2018-04-28T00:35:47.037Z,11.93
2018-04-28T00:38:20.051Z,7.23
2018-04-28T00:40:53.011Z,10.53
2018-04-28T00:43:28.905Z,7.33
2018-04-28T00:46:17.603Z,10.03
2018-04-28T00:48:56.209Z,9.67
2018-04-28T00:51:33.344Z,8.57
2018-04-28T00:54:11.231Z,8.07
2018-04-28T00:56:52.152Z,7.80
2018-04-28T00:59:28.683Z,7.87
2018-04-28T01:02:01.657Z,8.37
2018-04-28T01:04:43.337Z,9.73
2018-04-28T01:07:29.202Z,5.50
2018-04-28T01:10:08.075Z,6.83
2018-04-28T01:12:41.219Z,9.33
2018-04-28T01:18:24.217Z,8.67
2018-04-28T01:21:02.813Z,8.23
2018-04-28T01:23:38.756Z,6.07
2018-04-28T01:26:21.595Z,9.43
2018-04-28T01:29:05.413Z,8.80
2018-04-28T01:31:40.928Z,8.40
2018-04-28T01:34:22.719Z,8.37
2018-04-28T01:36:57.436Z,7.87
2018-04-28T01:39:44.928Z,10.50
2018-04-28T01:42:20.478Z,11.77
2018-04-28T01:48:25.696Z,9.17
2018-04-28T01:51:12.292Z,8.50
2018-04-28T01:54:16.873Z,8.07
2018-04-28T01:56:53.512Z,6.70
2018-04-28T01:59:28.293Z,8.73
2018-04-28T02:02:08.148Z,11.40
2018-04-28T02:07:50.893Z,9.20
2018-04-28T02:10:37.744Z,8.87
2018-04-28T02:13:12.252Z,7.80
2018-04-28T02:15:48.093Z,10.37
2018-04-28T02:21:30.557Z,9.80
2018-04-28T02:24:15.134Z,8.63
2018-04-28T02:26:50.019Z,8.90
2018-04-28T02:29:38.781Z,10.40
2018-04-28T02:32:12.716Z,8.53
2018-04-28T02:35:08.909Z,10.90
2018-04-28T02:38:15.394Z,10.77
2018-04-28T02:41:09.515Z,8.20
2018-04-28T02:43:49.254Z,10.37
2018-04-28T02:46:39.946Z,7.67
2018-04-28T02:49:19.893Z,10.53
2018-04-28T02:52:05.550Z,12.70
2018-04-28T02:54:39.327Z,7.97
2018-04-28T03:00:20.186Z,12.53
2018-04-28T03:06:36.426Z,21.10
2018-04-28T03:09:11.151Z,14.77
2018-04-28T03:11:44.145Z,13.87
2018-04-28T03:14:18.048Z,11.10
2018-04-28T03:17:10.866Z,11.13
2018-04-28T03:19:44.683Z,9.63
2018-04-28T03:22:19.596Z,17.03
2018-04-28T03:24:55.474Z,11.83
2018-04-28T03:27:49.293Z,9.43
2018-04-28T03:30:29.113Z,13.00
2018-04-28T03:33:09.727Z,12.87
2018-04-28T03:35:53.989Z,11.93
2018-04-28T03:38:33.789Z,20.83
2018-04-28T03:41:13.722Z,11.77
2018-04-28T03:43:46.689Z,16.97
2018-04-28T03:46:26.428Z,18.50
2018-04-28T03:49:08.165Z,15.60
2018-04-28T03:51:53.999Z,14.13
2018-04-28T03:54:45.198Z,12.40
2018-04-28T03:57:38.925Z,16.20
2018-04-28T04:00:23.683Z,16.83
2018-04-28T04:03:20.536Z,14.87
2018-04-28T04:06:16.049Z,11.57
2018-04-28T04:08:52.549Z,11.43
2018-04-28T04:11:31.464Z,13.00
2018-04-28T04:14:12.300Z,16.30
2018-04-28T04:16:51.068Z,18.37
2018-04-28T04:22:39.506Z,14.27
2018-04-28T04:25:19.144Z,14.57
2018-04-28T04:28:04.610Z,12.23
2018-04-28T04:30:45.286Z,16.57
2018-04-28T04:36:51.770Z,17.70
2018-04-28T04:39:30.460Z,17.23
2018-04-28T04:42:09.295Z,18.57
2018-04-28T04:44:47.170Z,13.93
2018-04-28T04:47:31.863Z,11.17
2018-04-28T04:50:15.649Z,11.77
2018-04-28T04:52:57.500Z,12.23
2018-04-28T04:55:35.144Z,12.60
2018-04-28T04:58:33.997Z,9.00
2018-04-28T05:01:21.570Z,17.07
2018-04-28T05:04:15.310Z,12.47
2018-04-28T05:06:57.279Z,13.60
2018-04-28T05:09:52.669Z,11.17
2018-04-28T05:12:28.579Z,12.87
2018-04-28T05:15:14.277Z,10.80
2018-04-28T05:21:14.775Z,15.50
2018-04-28T05:24:14.412Z,12.07
2018-04-28T05:26:54.227Z,12.47
2018-04-28T05:29:37.665Z,14.10
2018-04-28T05:32:28.263Z,10.20
2018-04-28T05:35:36.570Z,9.20
2018-04-28T05:38:36.825Z,18.07
2018-04-28T05:41:21.631Z,9.53
2018-04-28T05:44:17.192Z,11.33
2018-04-28T05:46:54.218Z,11.03
2018-04-28T05:52:50.909Z,12.57
2018-04-28T05:55:45.944Z,12.93
2018-04-28T05:58:42.949Z,7.93
2018-04-28T06:01:30.514Z,7.67
2018-04-28T06:07:17.520Z,10.93
2018-04-28T06:10:20.992Z,6.80
2018-04-28T06:13:11.320Z,7.77
2018-04-28T06:15:53.959Z,7.00
2018-04-28T06:18:40.599Z,8.97
2018-04-28T06:21:14.799Z,12.05
2018-04-28T06:23:55.765Z,10.13
2018-04-28T06:26:29.371Z,7.50
2018-04-28T06:29:04.674Z,8.52
2018-04-28T06:31:39.183Z,8.75
2018-04-28T06:34:13.673Z,8.32
2018-04-28T06:36:48.175Z,8.27
2018-04-28T06:39:21.761Z,8.90
2018-04-28T06:41:56.052Z,9.73
2018-04-28T06:44:30.273Z,7.35
2018-04-28T06:47:03.596Z,12.17
2018-04-28T06:49:36.627Z,8.17
2018-04-28T06:52:10.259Z,6.67
2018-04-28T06:54:43.927Z,9.50
2018-04-28T06:57:17.678Z,7.47
2018-04-28T06:59:53.001Z,10.05
2018-04-28T07:02:26.548Z,9.60
2018-04-28T07:05:01.243Z,10.85
2018-04-28T07:07:35.585Z,7.45
2018-04-28T07:10:10.775Z,9.85
2018-04-28T07:12:44.650Z,9.02
2018-04-28T07:15:18.256Z,8.82
2018-04-28T07:17:51.792Z,6.70
2018-04-28T07:20:26.474Z,7.65
2018-04-28T07:23:00.999Z,6.72
2018-04-28T07:25:34.639Z,6.00
2018-04-28T07:28:08.953Z,7.53
2018-04-28T07:30:43.986Z,6.78
2018-04-28T07:33:18.302Z,9.95
2018-04-28T07:35:51.895Z,8.55
2018-04-28T07:38:26.213Z,11.05
2018-04-28T07:40:59.792Z,7.20
2018-04-28T07:43:33.359Z,11.15
2018-04-28T07:46:07.266Z,7.03
2018-04-28T07:48:40.824Z,7.93
2018-04-28T07:51:16.798Z,7.68
2018-04-28T07:53:51.012Z,7.20
2018-04-28T07:56:25.577Z,9.32
2018-04-28T07:58:59.783Z,7.43
2018-04-28T08:01:33.349Z,10.73
2018-04-28T08:04:06.944Z,10.02
2018-04-28T08:06:41.522Z,8.60
2018-04-28T08:09:15.061Z,9.23
2018-04-28T08:11:49.404Z,9.07
2018-04-28T08:14:22.948Z,6.53
2018-04-28T08:16:56.498Z,6.97
2018-04-28T08:19:30.046Z,13.43
2018-04-28T08:22:04.390Z,6.18
2018-04-28T08:24:38.883Z,7.45
2018-04-28T08:27:13.419Z,8.95
2018-04-28T08:29:47.531Z,10.00
2018-04-28T08:32:21.151Z,6.10
2018-04-28T08:34:55.674Z,7.55
2018-04-28T08:37:29.269Z,10.30
2018-04-28T08:40:02.829Z,7.45
2018-04-28T08:42:36.421Z,7.87
2018-04-28T08:45:10.370Z,6.00
2018-04-28T08:47:44.605Z,6.65
2018-04-28T08:50:18.822Z,6.53
2018-04-28T08:52:59.879Z,11.63
2018-04-28T08:55:36.830Z,13.02
2018-04-28T08:58:21.862Z,5.78
2018-04-28T09:01:09.497Z,5.30
2018-04-28T09:03:50.410Z,5.93
2018-04-28T09:06:24.676Z,5.95
2018-04-28T09:09:00.406Z,7.50
2018-04-28T09:11:34.702Z,11.52
2018-04-28T09:14:14.356Z,16.70
2018-04-28T09:16:49.596Z,5.18
2018-04-28T09:19:33.184Z,8.63
2018-04-28T09:22:09.093Z,9.00
2018-04-28T09:24:44.298Z,7.45
2018-04-28T09:27:18.531Z,8.07
2018-04-28T09:29:52.372Z,9.63
2018-04-28T09:32:27.559Z,5.00
2018-04-28T09:35:01.794Z,7.15
2018-04-28T09:37:36.052Z,9.95
2018-04-28T09:40:11.429Z,3.47
2018-04-28T09:42:45.343Z,15.53
2018-04-28T09:45:19.756Z,9.10
2018-04-28T09:47:53.952Z,7.90
2018-04-28T09:53:36.876Z,8.18
2018-04-28T09:56:12.839Z,8.13
2018-04-28T09:58:47.033Z,14.63
2018-04-28T10:01:21.488Z,8.38
2018-04-28T10:03:56.270Z,11.45
2018-04-28T10:06:39.799Z,10.05
2018-04-28T10:09:15.180Z,12.27
2018-04-28T10:14:39.247Z,10.13
2018-04-28T10:17:13.684Z,8.60
2018-04-28T10:19:54.079Z,9.90
2018-04-28T10:22:28.445Z,8.43
2018-04-28T10:25:03.630Z,9.82
2018-04-28T10:27:37.944Z,7.45
2018-04-28T10:30:12.129Z,7.78
2018-04-28T10:32:47.317Z,4.87
2018-04-28T10:35:22.476Z,9.50
2018-04-28T10:37:56.710Z,8.90
2018-04-28T10:40:31.672Z,7.75
2018-04-28T10:43:05.901Z,5.70
2018-04-28T10:45:40.092Z,10.57
2018-04-28T10:48:16.040Z,9.60
2018-04-28T10:50:50.232Z,8.55
2018-04-28T10:53:25.421Z,8.98
2018-04-28T10:55:59.615Z,9.20
2018-04-28T10:58:33.843Z,8.43
2018-04-28T11:01:08.071Z,9.75
2018-04-28T11:03:43.268Z,10.68
2018-04-28T11:06:18.253Z,9.38
2018-04-28T11:08:52.649Z,10.98
2018-04-28T11:11:26.828Z,9.27
2018-04-28T11:14:01.821Z,10.18
2018-04-28T11:16:36.972Z,7.53
2018-04-28T11:19:10.976Z,9.95
2018-04-28T11:21:46.097Z,8.73
2018-04-28T11:24:20.326Z,7.93
2018-04-28T11:26:55.285Z,6.03
2018-04-28T11:29:30.499Z,7.78
2018-04-28T11:32:04.677Z,9.50
2018-04-28T11:34:38.895Z,9.98
2018-04-28T11:37:13.089Z,11.98
2018-04-28T11:39:47.292Z,9.45
2018-04-28T11:42:21.484Z,6.62
2018-04-28T11:44:56.478Z,7.30
2018-04-28T11:47:30.670Z,10.43
2018-04-28T11:50:04.246Z,8.15
2018-04-28T11:52:39.402Z,5.57
2018-04-28T11:55:13.302Z,7.47
2018-04-28T11:57:47.492Z,5.82
2018-04-28T12:00:21.715Z,7.10
2018-04-28T12:02:55.912Z,5.82
2018-04-28T12:05:30.912Z,7.37
2018-04-28T12:08:05.121Z,4.32
2018-04-28T12:10:40.142Z,7.45
2018-04-28T12:13:15.319Z,6.75
2018-04-28T12:15:51.284Z,5.25
2018-04-28T12:18:26.440Z,5.43
2018-04-28T12:21:01.650Z,7.68
2018-04-28T12:23:36.617Z,6.80
2018-04-28T12:26:11.819Z,8.30
2018-04-28T12:28:46.783Z,6.82
2018-04-28T12:31:21.037Z,8.32
2018-04-28T12:33:55.296Z,8.63
2018-04-28T12:36:29.670Z,7.72
2018-04-28T12:39:03.560Z,6.62
2018-04-28T12:41:37.785Z,7.03
2018-04-28T12:44:12.022Z,6.50
2018-04-28T12:46:47.987Z,7.30
2018-04-28T12:49:22.951Z,8.27
2018-04-28T12:51:57.175Z,9.57
2018-04-28T12:54:31.392Z,7.45
2018-04-28T12:57:06.286Z,7.80
2018-04-28T12:59:41.240Z,11.05
2018-04-28T13:02:17.193Z,9.30
2018-04-28T13:04:51.376Z,9.85
2018-04-28T13:07:27.331Z,7.37
2018-04-28T13:10:03.286Z,8.07
2018-04-28T13:12:39.301Z,5.40
2018-04-28T13:15:14.544Z,7.55
2018-04-28T13:17:48.739Z,7.62
2018-04-28T13:20:22.972Z,10.82
2018-04-28T13:22:57.182Z,10.80
2018-04-28T13:25:31.420Z,11.05
2018-04-28T13:28:06.572Z,11.27
2018-04-28T13:30:41.569Z,11.63
2018-04-28T13:33:16.551Z,10.18
2018-04-28T13:35:50.866Z,11.00
2018-04-28T13:38:26.773Z,12.40
2018-04-28T13:41:01.099Z,11.57
2018-04-28T13:43:36.191Z,10.05
2018-04-28T13:46:10.436Z,10.80
2018-04-28T13:48:45.604Z,11.18
2018-04-28T13:51:21.186Z,12.40
2018-04-28T13:53:55.388Z,10.60
2018-04-28T13:56:29.649Z,7.82
2018-04-28T13:59:04.886Z,10.25
2018-04-28T14:01:39.117Z,11.93
2018-04-28T14:04:13.295Z,9.60
2018-04-28T14:06:47.308Z,12.13
2018-04-28T14:09:20.978Z,80.68
2018-04-28T14:11:56.137Z,16.80
2018-04-28T14:14:30.219Z,19.15
2018-04-28T14:17:04.469Z,11.23
2018-04-28T14:19:38.693Z,10.07
2018-04-28T14:22:12.934Z,11.35
2018-04-28T14:24:47.905Z,13.30
2018-04-28T14:27:21.908Z,8.52
2018-04-28T14:29:55.860Z,9.95
2018-04-28T14:32:30.094Z,12.75
2018-04-28T14:35:03.975Z,5.93
2018-04-28T14:37:38.198Z,11.25
2018-04-28T14:40:12.382Z,9.27
2018-04-28T14:42:47.545Z,83.22
2018-04-28T14:45:21.773Z,10.20
2018-04-28T14:47:55.954Z,8.63
2018-04-28T14:50:31.198Z,8.05
2018-04-28T14:53:05.396Z,14.75
2018-04-28T14:55:39.645Z,14.48
2018-04-28T14:58:13.835Z,12.93
2018-04-28T15:00:48.061Z,15.52
2018-04-28T15:03:22.292Z,13.07
2018-04-28T15:05:57.304Z,17.02
2018-04-28T15:08:31.513Z,14.60
2018-04-28T15:11:06.705Z,15.30
2018-04-28T15:13:40.904Z,16.00
2018-04-28T15:16:15.913Z,13.40
2018-04-28T15:18:50.122Z,15.40
2018-04-28T15:21:25.332Z,18.70
2018-04-28T15:23:59.536Z,10.98
2018-04-28T15:26:34.734Z,9.95
2018-04-28T15:29:08.939Z,14.60
2018-04-28T15:31:43.188Z,14.07
2018-04-28T15:34:17.401Z,17.10
2018-04-28T15:36:52.651Z,16.52
2018-04-28T15:39:26.864Z,14.00
2018-04-28T15:42:02.063Z,17.27
2018-04-28T15:44:37.038Z,13.68
2018-04-28T15:47:11.257Z,8.93
2018-04-28T15:49:45.452Z,11.98
2018-04-28T15:52:19.681Z,14.00
2018-04-28T15:54:53.882Z,14.23
2018-04-28T15:57:30.803Z,10.65
2018-04-28T16:00:04.775Z,15.15
2018-04-28T16:02:39.093Z,12.80
2018-04-28T16:05:13.406Z,11.50
2018-04-28T16:07:47.677Z,9.82
2018-04-28T16:10:21.868Z,9.43
2018-04-28T16:12:55.804Z,11.93
2018-04-28T16:15:30.784Z,10.68
2018-04-28T16:18:06.018Z,10.60
2018-04-28T16:20:40.248Z,11.63
2018-04-28T16:23:14.478Z,8.57
2018-04-28T16:25:48.665Z,10.25
2018-04-28T16:28:23.877Z,12.55
2018-04-28T16:30:59.041Z,6.20
2018-04-28T16:33:33.279Z,12.90
2018-04-28T16:36:07.481Z,13.00
2018-04-28T16:38:42.723Z,13.55
2018-04-28T16:41:16.947Z,13.82
2018-04-28T16:43:51.166Z,14.00
2018-04-28T16:46:25.378Z,13.52
2018-04-28T16:49:00.609Z,12.40
2018-04-28T16:51:34.802Z,12.45
2018-04-28T16:54:08.827Z,13.45
2018-04-28T16:56:43.760Z,11.23
2018-04-28T16:59:18.006Z,13.35
2018-04-28T17:01:52.975Z,14.07
2018-04-28T17:04:28.203Z,10.90
2018-04-28T17:07:12.712Z,12.75
2018-04-28T17:09:47.020Z,14.40
2018-04-28T17:12:21.266Z,9.55
2018-04-28T17:14:55.650Z,10.82
2018-04-28T17:20:44.407Z,13.30
2018-04-28T17:23:18.601Z,11.27
2018-04-28T17:25:55.050Z,12.82
2018-04-28T17:28:29.250Z,13.90
2018-04-28T17:31:03.492Z,17.10
2018-04-28T17:33:37.695Z,15.30
2018-04-28T17:36:11.947Z,14.87
2018-04-28T17:38:46.145Z,12.18
2018-04-28T17:41:21.349Z,16.77
2018-04-28T17:43:55.546Z,13.98
2018-04-28T17:46:29.214Z,14.70
2018-04-28T17:49:02.848Z,17.13
2018-04-28T17:51:36.551Z,15.60
2018-04-28T17:54:10.201Z,14.63
2018-04-28T17:56:44.653Z,20.27
2018-04-28T17:59:19.281Z,21.43
2018-04-28T18:01:53.950Z,21.30
2018-04-28T18:04:27.634Z,16.30
2018-04-28T18:07:01.304Z,19.17
2018-04-28T18:09:35.008Z,18.77
2018-04-28T18:12:08.654Z,21.07
2018-04-28T18:14:43.389Z,17.20
2018-04-28T18:17:18.862Z,14.33
2018-04-28T18:19:53.510Z,16.30
2018-04-28T18:22:27.164Z,19.57
2018-04-28T18:25:02.583Z,14.47
2018-04-28T18:27:36.248Z,17.53
2018-04-28T18:30:09.925Z,13.73
2018-04-28T18:32:43.569Z,15.40
2018-04-28T18:35:17.248Z,18.03
2018-04-28T18:37:50.785Z,16.43
2018-04-28T18:40:25.248Z,20.00
2018-04-28T18:42:58.889Z,21.73
2018-04-28T18:45:33.540Z,21.07
2018-04-28T18:48:08.075Z,19.33
2018-04-28T18:50:43.513Z,20.77
2018-04-28T18:53:17.921Z,24.33
2018-04-28T18:55:51.264Z,34.50
2018-04-28T18:58:24.901Z,29.20
2018-04-28T19:00:58.583Z,26.20
2018-04-28T19:03:32.239Z,22.03
2018-04-28T19:06:08.651Z,25.87
2018-04-28T19:08:43.562Z,27.70
2018-04-28T19:14:11.755Z,34.10
2018-04-28T19:16:47.725Z,25.13
2018-04-28T19:19:21.380Z,23.03
2018-04-28T19:21:56.808Z,24.90
2018-04-28T19:24:32.181Z,29.60
2018-04-28T19:27:06.833Z,25.53
2018-04-28T19:29:40.469Z,27.87
2018-04-28T19:32:15.152Z,27.87
2018-04-28T19:34:56.607Z,30.20
2018-04-28T19:37:35.720Z,25.83
2018-04-28T19:40:10.116Z,30.07
2018-04-28T19:42:45.215Z,29.27
2018-04-28T19:45:18.858Z,29.60
2018-04-28T19:47:52.539Z,31.43
2018-04-28T19:50:26.182Z,25.50
2018-04-28T19:53:00.702Z,29.07
2018-04-28T19:55:35.108Z,30.73
2018-04-28T19:58:10.533Z,33.13
2018-04-28T20:00:44.281Z,26.90
2018-04-28T20:03:17.967Z,31.97
2018-04-28T20:05:52.376Z,29.53
2018-04-28T20:08:26.836Z,36.23
2018-04-28T20:11:00.487Z,39.90
2018-04-28T20:13:34.175Z,36.07
2018-04-28T20:16:07.812Z,35.50
2018-04-28T20:18:41.486Z,34.77
2018-04-28T20:21:15.133Z,39.87
2018-04-28T20:24:00.075Z,29.67
2018-04-28T20:26:35.454Z,34.00
2018-04-28T20:29:09.152Z,37.67
2018-04-28T20:31:42.793Z,37.13
2018-04-28T20:34:16.519Z,35.03
2018-04-28T20:36:50.918Z,37.40
2018-04-28T20:39:24.685Z,35.77
2018-04-28T20:41:58.318Z,41.20
2018-04-28T20:44:31.992Z,38.43
2018-04-28T20:47:05.672Z,36.07
2018-04-28T20:49:40.268Z,36.33
2018-04-28T20:52:13.952Z,35.07
2018-04-28T20:54:48.344Z,39.67
2018-04-28T20:57:22.013Z,40.43
2018-04-28T20:59:57.398Z,37.70
2018-04-28T21:02:32.070Z,36.23
2018-04-28T21:05:05.708Z,38.57
2018-04-28T21:07:39.382Z,41.03
2018-04-28T21:10:14.080Z,40.57
2018-04-28T21:12:48.477Z,39.00
2018-04-28T21:15:27.538Z,35.87
2018-04-28T21:18:01.792Z,36.40
2018-04-28T21:20:42.570Z,39.97
2018-04-28T21:23:17.578Z,35.10
2018-04-28T21:25:51.355Z,35.37
2018-04-28T21:28:27.156Z,38.27
2018-04-28T21:31:01.849Z,37.27
2018-04-28T21:33:35.325Z,41.57
2018-04-28T21:36:08.974Z,44.03
2018-04-28T21:38:42.668Z,42.53
2018-04-28T21:41:16.295Z,37.77
2018-04-28T21:43:49.969Z,32.60
2018-04-28T21:46:23.612Z,36.97
2018-04-28T21:49:02.636Z,36.00
2018-04-28T21:51:41.615Z,33.07
2018-04-28T21:54:18.612Z,36.07
2018-04-28T21:56:57.018Z,40.60
2018-04-28T21:59:31.789Z,39.90
2018-04-28T22:02:05.425Z,39.33
2018-04-28T22:04:40.067Z,39.47
2018-04-28T22:07:14.656Z,38.57
2018-04-28T22:09:48.328Z,39.97
2018-04-28T22:12:39.929Z,37.83
2018-04-28T22:15:13.598Z,39.43
2018-04-28T22:17:56.209Z,37.63
2018-04-28T22:20:38.597Z,36.27
2018-04-28T22:23:16.157Z,40.43
2018-04-28T22:25:50.588Z,42.77
2018-04-28T22:28:24.452Z,41.07
2018-04-28T22:30:58.392Z,45.27
2018-04-28T22:33:33.760Z,46.13
2018-04-28T22:36:09.954Z,42.73
2018-04-28T22:38:45.529Z,41.67
2018-04-28T22:41:20.964Z,43.20
2018-04-28T22:43:54.600Z,43.97
2018-04-28T22:46:28.267Z,43.33
2018-04-28T22:49:01.900Z,39.40
2018-04-28T22:51:36.541Z,41.70
2018-04-28T22:54:10.181Z,40.03
2018-04-28T22:56:43.856Z,36.87
2018-04-28T22:59:17.683Z,43.87
2018-04-28T23:01:51.347Z,42.80
2018-04-28T23:04:24.984Z,36.20
2018-04-28T23:06:58.668Z,37.03
2018-04-28T23:09:33.282Z,37.77
2018-04-28T23:12:07.952Z,34.90
2018-04-28T23:14:42.361Z,35.40
2018-04-28T23:17:16.040Z,35.60
2018-04-28T23:19:49.673Z,33.97
2018-04-28T23:22:24.120Z,31.00
2018-04-28T23:24:57.751Z,35.13
2018-04-28T23:27:31.431Z,32.20
2018-04-28T23:30:04.755Z,34.47
2018-04-28T23:32:38.441Z,29.40
2018-04-28T23:35:12.115Z,33.30
2018-04-28T23:37:45.801Z,36.23
2018-04-28T23:40:21.193Z,36.47
2018-04-28T23:42:54.870Z,35.97
2018-04-28T23:45:28.511Z,37.97
2018-04-28T23:48:02.200Z,35.10
2018-04-28T23:50:35.833Z,37.03
2018-04-28T23:53:10.069Z,38.77
2018-04-28T23:55:43.708Z,38.37
2018-04-28T23:58:17.380Z,40.00
